Loretto, Virginia
Current Conditions -  °F | °C
As of 4:35 PM on Friday 31 Oct 2014 (Local Time) from KXSA Reporting Station
Scattered Clouds Scattered Clouds  
Wind Chill: 55°   Ceiling: Unl
Heat Index: 55°   Visibility: 10mi
Dew Point: 33°   Wind: 3mph
Humidity: 43%   Direction: 10°N
Pressure: 29.86"   Gusts: NA
Location:  38.08°N, 77.05°W
Report Text: KXSA 312035Z AUTO 01003KT 10SM SCT049 13/00 A2986 RMK AO2 T01290004
Loading
Personal Weather Stations






























Interactive Weather Map
Tropical Storm Tracking
New forecast layout! Learn more

10-Day Weather Forecast

Advertisements
Track Severe Weather on mobile